Accueil
METAR-TAF:

METAR-TAF

Aéroports :

Sanderson Field Airport

Shelton, Washington, États-Unis

latitude: 47-14-17N, longitude: 123-08-27W, altitude: 82 m

Observation

Le bulletin a été fait il y a 37 minutes, à 17:53 UTC
Vent 3 kt de sud-est
Température 5°C
Humidité 81%
Pression 1021 hPa
Visibilité: 16.1 km
Ciel clair

METAR: KSHN 191753Z AUTO 14003KT 10SM CLR 05/02 A3014 RMK AO2 SLP210 I6000 T00500022 10050 21033 50003

Heure: 10:30 (18:30 UTC)


TAF: absent

Observations et prévisions météorologiques de plus de 4000 aéroports (messages METAR et TAF).

Les stations disponibles sont représentées par des disques jaunes et rouges sur la carte.

Passer la souris dessus pour voir le nom de la station.

Cliquer dessus pour voir les observations et prévisions météorologiques.

Pour changer de carte: cliquez sur les boutons verts avec une croix noire pour zoomer, sur le bouton vert avec un tiret pour effectuer un zoom arrière, ou sur les flèches vertes pour les cartes adjacentes.


METAR-TAF: